Time,TemperatureF,DewpointF,PressureIn,WindDirection,WindDirectionDegrees,WindSpeedMPH,WindSpeedGustMPH,Humidity,HourlyPrecipIn,Conditions,Clouds,dailyrainin,SoftwareType,DateUTC
2013-02-23 00:00:00,15.8,12.6,30.37,West,262,1.0,4.0,87,0.00,,,0.00,meteohub,2013-02-23 06:00:00,
2013-02-23 00:05:00,15.6,12.4,30.37,West,265,0.0,3.0,87,0.00,,,0.00,meteohub,2013-02-23 06:05:00,
2013-02-23 00:10:00,15.6,12.4,30.37,West,267,0.0,3.0,87,0.00,,,0.00,meteohub,2013-02-23 06:10:00,
2013-02-23 00:15:00,15.6,12.4,30.37,WSW,255,1.0,3.0,87,0.00,,,0.00,meteohub,2013-02-23 06:15:00,
2013-02-23 00:21:00,15.4,12.2,30.37,WSW,245,1.0,3.0,87,0.00,,,0.00,meteohub,2013-02-23 06:21:00,
2013-02-23 00:26:00,15.6,12.7,30.37,SW,224,0.0,2.0,88,0.00,,,0.00,meteohub,2013-02-23 06:26:00,
2013-02-23 00:31:00,15.4,12.6,30.37,SW,236,0.0,3.0,88,0.00,,,0.00,meteohub,2013-02-23 06:31:00,
2013-02-23 00:36:00,15.1,11.8,30.37,WSW,246,2.0,3.0,87,0.00,,,0.00,meteohub,2013-02-23 06:36:00,
2013-02-23 00:41:00,15.1,11.8,30.37,WSW,257,1.0,3.0,87,0.00,,,0.00,meteohub,2013-02-23 06:41:00,
2013-02-23 00:46:00,14.9,11.7,30.37,WSW,245,1.0,3.0,87,0.00,,,0.00,meteohub,2013-02-23 06:46:00,
2013-02-23 00:51:00,14.7,11.8,30.37,WSW,244,0.0,3.0,88,0.00,,,0.00,meteohub,2013-02-23 06:51:00,
2013-02-23 00:56:00,14.5,11.7,30.37,WSW,245,0.0,2.0,88,0.00,,,0.00,meteohub,2013-02-23 06:56:00,
2013-02-23 01:01:00,14.4,11.5,30.36,SW,231,0.0,1.0,88,0.00,,,0.00,meteohub,2013-02-23 07:01:00,
2013-02-23 01:06:00,14.2,11.3,30.36,SW,225,0.0,0.0,88,0.00,,,0.00,meteohub,2013-02-23 07:06:00,
2013-02-23 01:11:00,13.8,10.9,30.36,SW,225,0.0,0.0,88,0.00,,,0.00,meteohub,2013-02-23 07:11:00,
2013-02-23 01:16:00,13.8,10.9,30.36,SW,225,0.0,0.0,88,0.00,,,0.00,meteohub,2013-02-23 07:16:00,
2013-02-23 01:21:00,13.6,10.9,30.36,SW,221,0.0,0.0,89,0.00,,,0.00,meteohub,2013-02-23 07:21:00,
2013-02-23 01:26:00,13.5,10.6,30.36,SSW,205,2.0,2.0,88,0.00,,,0.00,meteohub,2013-02-23 07:26:00,
2013-02-23 01:31:00,13.1,10.2,30.36,SW,217,5.0,5.0,88,0.00,,,0.00,meteohub,2013-02-23 07:31:00,
2013-02-23 01:36:00,12.9,10.0,30.36,SW,231,3.0,6.0,88,0.00,,,0.00,meteohub,2013-02-23 07:36:00,
2013-02-23 01:41:00,12.9,10.2,30.36,South,181,1.0,6.0,89,0.00,,,0.00,meteohub,2013-02-23 07:41:00,
2013-02-23 01:46:00,12.9,10.2,30.36,SW,222,2.0,6.0,89,0.00,,,0.00,meteohub,2013-02-23 07:46:00,
2013-02-23 01:51:00,12.9,10.2,30.35,WSW,250,4.0,4.0,89,0.00,,,0.00,meteohub,2013-02-23 07:51:00,
2013-02-23 01:56:00,12.7,10.0,30.35,WSW,257,2.0,4.0,89,0.00,,,0.00,meteohub,2013-02-23 07:56:00,
2013-02-23 02:01:00,12.4,9.7,30.35,WSW,258,4.0,5.0,89,0.00,,,0.00,meteohub,2013-02-23 08:01:00,
2013-02-23 02:06:00,11.8,9.0,30.35,West,267,3.0,6.0,88,0.00,,,0.00,meteohub,2013-02-23 08:06:00,
2013-02-23 02:11:00,11.5,9.0,30.35,WSW,249,2.0,6.0,89,0.00,,,0.00,meteohub,2013-02-23 08:11:00,
2013-02-23 02:16:00,11.5,9.0,30.35,West,274,2.0,6.0,89,0.00,,,0.00,meteohub,2013-02-23 08:16:00,
2013-02-23 02:21:00,11.3,8.8,30.35,WSW,252,2.0,4.0,89,0.00,,,0.00,meteohub,2013-02-23 08:21:00,
2013-02-23 02:26:00,11.1,8.8,30.35,West,262,1.0,3.0,90,0.00,,,0.00,meteohub,2013-02-23 08:26:00,
2013-02-23 02:31:00,11.3,9.0,30.35,West,266,0.0,2.0,90,0.00,,,0.00,meteohub,2013-02-23 08:31:00,
2013-02-23 02:36:00,11.3,9.0,30.34,West,267,0.0,2.0,90,0.00,,,0.00,meteohub,2013-02-23 08:36:00,
2013-02-23 02:41:00,11.3,9.0,30.34,West,267,0.0,1.0,90,0.00,,,0.00,meteohub,2013-02-23 08:41:00,
2013-02-23 02:46:00,11.5,9.3,30.34,WSW,240,1.0,0.0,91,0.00,,,0.00,meteohub,2013-02-23 08:46:00,
2013-02-23 02:51:00,11.8,9.7,30.34,SW,228,0.0,1.0,91,0.00,,,0.00,meteohub,2013-02-23 08:51:00,
2013-02-23 02:56:00,12.2,10.0,30.33,SW,231,0.0,1.0,91,0.00,,,0.00,meteohub,2013-02-23 08:56:00,
2013-02-23 03:01:00,12.2,9.9,30.33,SW,228,0.0,1.0,90,0.00,,,0.00,meteohub,2013-02-23 09:01:00,
2013-02-23 03:06:00,12.0,9.7,30.33,WSW,246,0.0,0.0,90,0.00,,,0.00,meteohub,2013-02-23 09:06:00,
2013-02-23 03:11:00,12.4,10.0,30.33,SW,233,0.0,0.0,90,0.00,,,0.00,meteohub,2013-02-23 09:11:00,
2013-02-23 03:16:00,12.6,10.4,30.33,WSW,255,0.0,0.0,91,0.00,,,0.00,meteohub,2013-02-23 09:16:00,
2013-02-23 03:21:00,12.7,10.4,30.32,West,266,0.0,0.0,90,0.00,,,0.00,meteohub,2013-02-23 09:21:00,
2013-02-23 03:26:00,12.7,10.4,30.32,West,266,0.0,0.0,90,0.00,,,0.00,meteohub,2013-02-23 09:26:00,
2013-02-23 03:31:00,12.7,10.4,30.32,West,266,0.0,0.0,90,0.00,,,0.00,meteohub,2013-02-23 09:31:00,
2013-02-23 03:36:00,12.6,10.2,30.31,West,266,0.0,0.0,90,0.00,,,0.00,meteohub,2013-02-23 09:36:00,
2013-02-23 03:41:00,12.6,10.2,30.31,West,266,0.0,0.0,90,0.00,,,0.00,meteohub,2013-02-23 09:41:00,
2013-02-23 03:46:00,12.6,10.4,30.31,West,266,0.0,0.0,91,0.00,,,0.00,meteohub,2013-02-23 09:46:00,
2013-02-23 03:51:00,12.7,10.6,30.31,West,266,0.0,0.0,91,0.00,,,0.00,meteohub,2013-02-23 09:51:00,
2013-02-23 03:56:00,12.7,10.4,30.30,ENE,57,0.0,0.0,90,0.00,,,0.00,meteohub,2013-02-23 09:56:00,
2013-02-23 04:01:00,12.6,10.2,30.30,East,84,0.0,0.0,90,0.00,,,0.00,meteohub,2013-02-23 10:01:00,
2013-02-23 04:06:00,12.4,10.0,30.30,East,83,0.0,0.0,90,0.00,,,0.00,meteohub,2013-02-23 10:06:00,
2013-02-23 04:11:00,12.4,10.2,30.30,East,84,0.0,0.0,91,0.00,,,0.00,meteohub,2013-02-23 10:11:00,
2013-02-23 04:16:00,12.6,10.4,30.30,East,83,0.0,0.0,91,0.00,,,0.00,meteohub,2013-02-23 10:16:00,
2013-02-23 04:21:00,12.6,10.4,30.29,ESE,103,0.0,0.0,91,0.00,,,0.00,meteohub,2013-02-23 10:21:00,
2013-02-23 04:26:00,12.4,10.2,30.29,ESE,105,0.0,0.0,91,0.00,,,0.00,meteohub,2013-02-23 10:26:00,
2013-02-23 04:31:00,12.4,10.2,30.29,East,91,1.0,0.0,91,0.00,,,0.00,meteohub,2013-02-23 10:31:00,
2013-02-23 04:36:00,12.4,10.2,30.29,East,91,1.0,2.0,91,0.00,,,0.00,meteohub,2013-02-23 10:36:00,
2013-02-23 04:41:00,12.4,10.2,30.28,East,92,0.0,2.0,91,0.00,,,0.00,meteohub,2013-02-23 10:41:00,
2013-02-23 04:46:00,12.6,10.4,30.28,East,91,1.0,2.0,91,0.00,,,0.00,meteohub,2013-02-23 10:46:00,
2013-02-23 04:51:00,12.6,10.4,30.28,East,91,0.0,2.0,91,0.00,,,0.00,meteohub,2013-02-23 10:51:00,
2013-02-23 04:57:00,12.6,10.4,30.28,East,98,0.0,1.0,91,0.00,,,0.00,meteohub,2013-02-23 10:57:00,
2013-02-23 05:02:00,12.6,10.4,30.28,East,99,0.0,1.0,91,0.00,,,0.00,meteohub,2013-02-23 11:02:00,
2013-02-23 05:07:00,12.6,10.4,30.28,ESE,111,1.0,1.0,91,0.00,,,0.00,meteohub,2013-02-23 11:07:00,
2013-02-23 05:12:00,12.6,10.4,30.28,ESE,111,1.0,1.0,91,0.00,,,0.00,meteohub,2013-02-23 11:12:00,
2013-02-23 05:17:00,12.4,10.2,30.27,ESE,110,1.0,2.0,91,0.00,,,0.00,meteohub,2013-02-23 11:17:00,
2013-02-23 05:22:00,12.4,10.2,30.28,ESE,105,1.0,2.0,91,0.00,,,0.00,meteohub,2013-02-23 11:22:00,
2013-02-23 05:27:00,12.4,10.2,30.28,ESE,108,1.0,4.0,91,0.00,,,0.00,meteohub,2013-02-23 11:27:00,
2013-02-23 05:32:00,12.4,10.2,30.28,SE,129,1.0,4.0,91,0.00,,,0.00,meteohub,2013-02-23 11:32:00,
2013-02-23 05:37:00,12.6,10.4,30.28,ESE,122,2.0,2.0,91,0.00,,,0.00,meteohub,2013-02-23 11:37:00,
2013-02-23 05:42:00,12.6,10.4,30.28,SE,144,1.0,2.0,91,0.00,,,0.00,meteohub,2013-02-23 11:42:00,
2013-02-23 05:47:00,12.4,10.2,30.29,SSE,153,2.0,2.0,91,0.00,,,0.00,meteohub,2013-02-23 11:47:00,
2013-02-23 05:52:00,12.2,10.0,30.29,SE,146,2.0,2.0,91,0.00,,,0.00,meteohub,2013-02-23 11:52:00,
2013-02-23 05:57:00,12.0,9.9,30.29,SW,222,2.0,3.0,91,0.00,,,0.00,meteohub,2013-02-23 11:57:00,
2013-02-23 06:02:00,12.0,9.9,30.29,SW,224,1.0,3.0,91,0.00,,,0.00,meteohub,2013-02-23 12:02:00,
2013-02-23 06:07:00,12.0,9.9,30.29,SW,221,1.0,3.0,91,0.00,,,0.00,meteohub,2013-02-23 12:07:00,
2013-02-23 06:12:00,11.8,9.7,30.30,SW,228,2.0,3.0,91,0.00,,,0.00,meteohub,2013-02-23 12:12:00,
2013-02-23 06:17:00,11.7,9.9,30.30,SW,214,1.0,4.0,92,0.00,,,0.00,meteohub,2013-02-23 12:17:00,
2013-02-23 06:22:00,11.7,9.5,30.29,SW,217,3.0,4.0,91,0.00,,,0.00,meteohub,2013-02-23 12:22:00,
2013-02-23 06:27:00,11.5,9.3,30.29,SSW,195,0.0,4.0,91,0.00,,,0.00,meteohub,2013-02-23 12:27:00,
2013-02-23 06:32:00,11.5,9.3,30.29,SW,214,3.0,4.0,91,0.00,,,0.00,meteohub,2013-02-23 12:32:00,
2013-02-23 06:37:00,11.1,9.0,30.29,WSW,240,0.0,4.0,91,0.00,,,0.00,meteohub,2013-02-23 12:37:00,
2013-02-23 06:42:00,11.1,9.0,30.29,SSW,208,0.0,4.0,91,0.00,,,0.00,meteohub,2013-02-23 12:42:00,
2013-02-23 06:47:00,10.9,8.8,30.29,SE,124,0.0,3.0,91,0.00,,,0.00,meteohub,2013-02-23 12:47:00,
2013-02-23 06:52:00,10.8,8.6,30.29,ESE,108,0.0,3.0,91,0.00,,,0.00,meteohub,2013-02-23 12:52:00,
2013-02-23 06:57:00,10.4,8.1,30.30,SE,127,0.0,2.0,90,0.00,,,0.00,meteohub,2013-02-23 12:57:00,
2013-02-23 07:02:00,10.0,7.7,30.30,SE,127,1.0,2.0,90,0.00,,,0.00,meteohub,2013-02-23 13:02:00,
2013-02-23 07:07:00,9.9,7.5,30.29,SE,139,0.0,2.0,90,0.00,,,0.00,meteohub,2013-02-23 13:07:00,
2013-02-23 07:12:00,9.7,7.3,30.30,SE,144,0.0,2.0,90,0.00,,,0.00,meteohub,2013-02-23 13:12:00,
2013-02-23 07:17:00,9.7,7.3,30.29,SE,126,1.0,2.0,90,0.00,,,0.00,meteohub,2013-02-23 13:17:00,
2013-02-23 07:22:00,9.7,7.3,30.29,SE,136,1.0,1.0,90,0.00,,,0.00,meteohub,2013-02-23 13:22:00,
2013-02-23 07:27:00,9.7,7.3,30.29,SSE,147,2.0,2.0,90,0.00,,,0.00,meteohub,2013-02-23 13:27:00,
2013-02-23 07:32:00,10.0,7.7,30.30,SSE,158,1.0,2.0,90,0.00,,,0.00,meteohub,2013-02-23 13:32:00,
2013-02-23 07:37:00,10.6,8.2,30.30,SW,214,1.0,2.0,90,0.00,,,0.00,meteohub,2013-02-23 13:37:00,
2013-02-23 07:42:00,10.9,8.6,30.30,SSW,207,0.0,2.0,90,0.00,,,0.00,meteohub,2013-02-23 13:42:00,
2013-02-23 07:47:00,11.3,9.0,30.30,SSW,208,0.0,3.0,90,0.00,,,0.00,meteohub,2013-02-23 13:47:00,
2013-02-23 07:52:00,11.1,8.6,30.30,SW,231,2.0,3.0,89,0.00,,,0.00,meteohub,2013-02-23 13:52:00,
2013-02-23 07:57:00,10.9,8.4,30.31,SSE,159,2.0,4.0,89,0.00,,,0.00,meteohub,2013-02-23 13:57:00,
2013-02-23 08:02:00,11.7,9.3,30.31,SSE,155,2.0,4.0,90,0.00,,,0.00,meteohub,2013-02-23 14:02:00,
2013-02-23 08:07:00,12.0,9.7,30.31,SSW,208,2.0,4.0,90,0.00,,,0.00,meteohub,2013-02-23 14:07:00,
2013-02-23 08:12:00,12.4,9.7,30.31,SSW,195,2.0,4.0,89,0.00,,,0.00,meteohub,2013-02-23 14:12:00,
2013-02-23 08:17:00,12.6,10.2,30.30,SSE,149,3.0,5.0,90,0.00,,,0.00,meteohub,2013-02-23 14:17:00,
2013-02-23 08:22:00,12.6,9.9,30.30,SSE,163,5.0,5.0,89,0.00,,,0.00,meteohub,2013-02-23 14:22:00,
2013-02-23 08:27:00,12.4,9.7,30.30,SE,137,2.0,7.0,89,0.00,,,0.00,meteohub,2013-02-23 14:27:00,
2013-02-23 08:32:00,12.6,9.9,30.30,SE,137,4.0,7.0,89,0.00,,,0.00,meteohub,2013-02-23 14:32:00,
2013-02-23 08:37:00,12.7,10.0,30.30,East,96,2.0,7.0,89,0.00,,,0.00,meteohub,2013-02-23 14:37:00,
2013-02-23 08:42:00,13.3,10.6,30.30,SE,124,2.0,5.0,89,0.00,,,0.00,meteohub,2013-02-23 14:42:00,
2013-02-23 08:47:00,13.6,10.8,30.30,SE,131,2.0,5.0,88,0.00,,,0.00,meteohub,2013-02-23 14:47:00,
2013-02-23 08:52:00,14.2,11.3,30.30,SE,136,3.0,5.0,88,0.00,,,0.00,meteohub,2013-02-23 14:52:00,
2013-02-23 08:57:00,15.1,12.2,30.30,South,173,1.0,5.0,88,0.00,,,0.00,meteohub,2013-02-23 14:57:00,
2013-02-23 09:02:00,16.3,13.5,30.30,SSW,195,0.0,5.0,88,0.00,,,0.00,meteohub,2013-02-23 15:02:00,
2013-02-23 09:07:00,17.4,13.6,30.31,SW,225,6.0,6.0,85,0.00,,,0.00,meteohub,2013-02-23 15:07:00,
2013-02-23 09:12:00,17.4,13.5,30.31,SSW,198,4.0,6.0,84,0.00,,,0.00,meteohub,2013-02-23 15:12:00,
2013-02-23 09:17:00,17.6,13.6,30.30,SSW,197,3.0,6.0,84,0.00,,,0.00,meteohub,2013-02-23 15:17:00,
2013-02-23 09:22:00,17.8,13.8,30.30,South,191,4.0,6.0,84,0.00,,,0.00,meteohub,2013-02-23 15:22:00,
2013-02-23 09:27:00,18.1,14.4,30.30,WSW,238,6.0,8.0,85,0.00,,,0.00,meteohub,2013-02-23 15:27:00,
2013-02-23 09:32:00,18.3,14.0,30.30,SSW,212,2.0,8.0,83,0.00,,,0.00,meteohub,2013-02-23 15:32:00,
2013-02-23 09:37:00,18.1,13.8,30.30,WSW,240,6.0,8.0,83,0.00,,,0.00,meteohub,2013-02-23 15:37:00,
2013-02-23 09:42:00,17.8,13.8,30.30,SW,231,5.0,8.0,84,0.00,,,0.00,meteohub,2013-02-23 15:42:00,
2013-02-23 09:47:00,17.4,13.5,30.31,WSW,240,9.0,11.0,84,0.00,,,0.00,meteohub,2013-02-23 15:47:00,
2013-02-23 09:52:00,17.1,13.1,30.31,SSW,211,6.0,11.0,84,0.00,,,0.00,meteohub,2013-02-23 15:52:00,
2013-02-23 09:57:00,17.2,13.3,30.31,SW,226,4.0,11.0,84,0.00,,,0.00,meteohub,2013-02-23 15:57:00,
2013-02-23 10:02:00,17.4,13.6,30.32,SW,217,8.0,11.0,85,0.00,,,0.00,meteohub,2013-02-23 16:02:00,
2013-02-23 10:07:00,17.4,13.5,30.32,SW,235,3.0,9.0,84,0.00,,,0.00,meteohub,2013-02-23 16:07:00,
2013-02-23 10:12:00,17.4,13.1,30.31,SW,223,6.0,11.0,83,0.00,,,0.00,meteohub,2013-02-23 16:12:00,
2013-02-23 10:17:00,17.4,13.5,30.31,SW,233,10.0,11.0,84,0.00,,,0.00,meteohub,2013-02-23 16:17:00,
2013-02-23 10:22:00,17.8,13.8,30.31,SW,228,7.0,12.0,84,0.00,,,0.00,meteohub,2013-02-23 16:22:00,
2013-02-23 10:27:00,18.0,14.0,30.31,SW,228,8.0,12.0,84,0.00,,,0.00,meteohub,2013-02-23 16:27:00,
2013-02-23 10:32:00,18.7,14.7,30.31,SW,232,6.0,12.0,84,0.00,,,0.00,meteohub,2013-02-23 16:32:00,
2013-02-23 10:37:00,19.2,14.9,30.31,SW,225,4.0,11.0,83,0.00,,,0.00,meteohub,2013-02-23 16:37:00,
2013-02-23 10:42:00,19.6,14.9,30.30,South,176,2.0,9.0,82,0.00,,,0.00,meteohub,2013-02-23 16:42:00,
2013-02-23 10:47:00,19.9,15.1,30.30,West,260,4.0,9.0,81,0.00,,,0.00,meteohub,2013-02-23 16:47:00,
2013-02-23 10:52:00,20.5,15.6,30.30,WSW,243,4.0,10.0,81,0.00,,,0.00,meteohub,2013-02-23 16:52:00,
2013-02-23 10:57:00,21.6,16.9,30.30,SW,214,4.0,10.0,82,0.00,,,0.00,meteohub,2013-02-23 16:57:00,
2013-02-23 11:02:00,22.3,17.1,30.30,WSW,245,7.0,10.0,80,0.00,,,0.00,meteohub,2013-02-23 17:02:00,
2013-02-23 11:07:00,22.5,16.9,30.30,SW,233,6.0,9.0,79,0.00,,,0.00,meteohub,2013-02-23 17:07:00,
2013-02-23 11:12:00,22.8,17.1,30.30,WSW,243,7.0,9.0,78,0.00,,,0.00,meteohub,2013-02-23 17:12:00,
2013-02-23 11:17:00,23.2,17.4,30.30,SW,225,6.0,9.0,78,0.00,,,0.00,meteohub,2013-02-23 17:17:00,
2013-02-23 11:22:00,23.7,18.0,30.30,SW,231,4.0,9.0,78,0.00,,,0.00,meteohub,2013-02-23 17:22:00,
2013-02-23 11:27:00,24.1,18.0,30.29,WSW,246,3.0,8.0,77,0.00,,,0.00,meteohub,2013-02-23 17:27:00,
2013-02-23 11:32:00,24.6,18.5,30.30,SW,228,4.0,7.0,77,0.00,,,0.00,meteohub,2013-02-23 17:32:00,
2013-02-23 11:37:00,25.2,18.7,30.29,WSW,245,3.0,7.0,76,0.00,,,0.00,meteohub,2013-02-23 17:37:00,
2013-02-23 11:42:00,25.5,19.0,30.29,WSW,239,4.0,7.0,76,0.00,,,0.00,meteohub,2013-02-23 17:42:00,
2013-02-23 11:47:00,26.1,19.2,30.29,SW,231,3.0,6.0,75,0.00,,,0.00,meteohub,2013-02-23 17:47:00,
2013-02-23 11:52:00,26.4,19.2,30.29,SW,233,6.0,6.0,74,0.00,,,0.00,meteohub,2013-02-23 17:52:00,
2013-02-23 11:57:00,27.0,19.8,30.28,SE,134,2.0,6.0,74,0.00,,,0.00,meteohub,2013-02-23 17:57:00,
2013-02-23 12:02:00,28.0,20.5,30.28,SW,224,1.0,6.0,73,0.00,,,0.00,meteohub,2013-02-23 18:02:00,
2013-02-23 12:07:00,28.9,21.0,30.28,SSE,161,1.0,6.0,72,0.00,,,0.00,meteohub,2013-02-23 18:07:00,
2013-02-23 12:12:00,29.7,21.4,30.28,SE,139,1.0,5.0,71,0.00,,,0.00,meteohub,2013-02-23 18:12:00,
2013-02-23 12:17:00,30.9,21.2,30.28,SSW,204,2.0,4.0,67,0.00,,,0.00,meteohub,2013-02-23 18:17:00,
2013-02-23 12:22:00,30.9,20.8,30.28,South,170,3.0,6.0,66,0.00,,,0.00,meteohub,2013-02-23 18:22:00,
2013-02-23 12:27:00,30.7,21.4,30.28,SW,221,2.0,6.0,68,0.00,,,0.00,meteohub,2013-02-23 18:27:00,
2013-02-23 12:32:00,30.2,21.2,30.27,SSW,209,3.0,6.0,69,0.00,,,0.00,meteohub,2013-02-23 18:32:00,
2013-02-23 12:37:00,29.8,20.8,30.27,WSW,242,8.0,9.0,69,0.00,,,0.00,meteohub,2013-02-23 18:37:00,
2013-02-23 12:42:00,29.5,21.2,30.27,SW,229,7.0,10.0,71,0.00,,,0.00,meteohub,2013-02-23 18:42:00,
2013-02-23 12:47:00,30.0,21.4,30.27,SSW,203,2.0,10.0,70,0.00,,,0.00,meteohub,2013-02-23 18:47:00,
2013-02-23 12:52:00,29.7,21.4,30.27,SSW,198,6.0,10.0,71,0.00,,,0.00,meteohub,2013-02-23 18:52:00,
2013-02-23 12:57:00,30.0,21.7,30.26,SW,231,4.0,10.0,71,0.00,,,0.00,meteohub,2013-02-23 18:57:00,
2013-02-23 13:02:00,31.3,23.0,30.26,South,180,2.0,10.0,71,0.00,,,0.00,meteohub,2013-02-23 19:02:00,
2013-02-23 13:07:00,31.6,22.3,30.25,SSE,153,5.0,10.0,68,0.00,,,0.00,meteohub,2013-02-23 19:07:00,
2013-02-23 13:12:00,31.8,22.8,30.25,SE,129,5.0,8.0,69,0.00,,,0.00,meteohub,2013-02-23 19:12:00,
2013-02-23 13:17:00,31.6,22.6,30.25,SSW,211,5.0,7.0,69,0.00,,,0.00,meteohub,2013-02-23 19:17:00,
2013-02-23 13:22:00,31.8,22.8,30.25,SW,227,4.0,7.0,69,0.00,,,0.00,meteohub,2013-02-23 19:22:00,
2013-02-23 13:27:00,32.0,23.4,30.24,SW,221,8.0,8.0,70,0.00,,,0.00,meteohub,2013-02-23 19:27:00,
2013-02-23 13:32:00,31.6,22.6,30.24,SW,221,6.0,11.0,69,0.00,,,0.00,meteohub,2013-02-23 19:32:00,
2013-02-23 13:37:00,31.6,23.4,30.24,SW,219,8.0,11.0,71,0.00,,,0.00,meteohub,2013-02-23 19:37:00,
2013-02-23 13:42:00,31.8,23.2,30.24,SW,217,6.0,11.0,70,0.00,,,0.00,meteohub,2013-02-23 19:42:00,
2013-02-23 13:47:00,31.6,23.4,30.24,South,179,6.0,13.0,71,0.00,,,0.00,meteohub,2013-02-23 19:47:00,
2013-02-23 13:52:00,31.6,23.4,30.24,SSW,208,7.0,13.0,71,0.00,,,0.00,meteohub,2013-02-23 19:52:00,
2013-02-23 13:57:00,31.8,23.9,30.24,SSW,195,4.0,13.0,72,0.00,,,0.00,meteohub,2013-02-23 19:57:00,
2013-02-23 14:02:00,32.5,24.3,30.23,South,173,4.0,12.0,71,0.00,,,0.00,meteohub,2013-02-23 20:02:00,
2013-02-23 14:07:00,32.2,23.5,30.23,SW,231,8.0,12.0,70,0.00,,,0.00,meteohub,2013-02-23 20:07:00,
2013-02-23 14:12:00,31.6,23.4,30.22,SW,231,8.0,14.0,71,0.00,,,0.00,meteohub,2013-02-23 20:12:00,
2013-02-23 14:17:00,31.8,23.9,30.23,SSW,204,4.0,14.0,72,0.00,,,0.00,meteohub,2013-02-23 20:17:00,
2013-02-23 14:22:00,31.6,23.4,30.22,SW,224,8.0,14.0,71,0.00,,,0.00,meteohub,2013-02-23 20:22:00,
2013-02-23 14:27:00,31.5,23.5,30.22,SW,214,5.0,12.0,72,0.00,,,0.00,meteohub,2013-02-23 20:27:00,
2013-02-23 14:32:00,32.4,23.7,30.22,SW,217,5.0,12.0,70,0.00,,,0.00,meteohub,2013-02-23 20:32:00,
2013-02-23 14:37:00,32.0,23.4,30.22,SSW,198,3.0,11.0,70,0.00,,,0.00,meteohub,2013-02-23 20:37:00,
2013-02-23 14:42:00,31.5,23.2,30.22,SW,217,12.0,13.0,71,0.00,,,0.00,meteohub,2013-02-23 20:42:00,
2013-02-23 14:47:00,31.6,23.7,30.21,SSW,195,3.0,15.0,72,0.00,,,0.00,meteohub,2013-02-23 20:47:00,
2013-02-23 14:52:00,31.8,23.5,30.21,SW,214,3.0,15.0,71,0.00,,,0.00,meteohub,2013-02-23 20:52:00,
2013-02-23 14:57:00,32.4,23.7,30.21,SW,231,6.0,14.0,70,0.00,,,0.00,meteohub,2013-02-23 20:57:00,
2013-02-23 15:02:00,32.7,24.4,30.20,SW,214,3.0,11.0,71,0.01,,,0.01,meteohub,2013-02-23 21:02:00,
2013-02-23 15:07:00,33.1,24.1,30.19,SE,146,5.0,11.0,69,0.01,,,0.01,meteohub,2013-02-23 21:07:00,
2013-02-23 15:12:00,33.1,23.7,30.19,SSE,167,8.0,11.0,68,0.01,,,0.01,meteohub,2013-02-23 21:12:00,
2013-02-23 15:17:00,33.3,24.6,30.19,WSW,243,6.0,11.0,70,0.01,,,0.01,meteohub,2013-02-23 21:17:00,
2013-02-23 15:22:00,33.4,24.4,30.19,South,190,5.0,11.0,69,0.01,,,0.01,meteohub,2013-02-23 21:22:00,
2013-02-23 15:27:00,33.3,24.3,30.19,South,187,3.0,11.0,69,0.01,,,0.01,meteohub,2013-02-23 21:27:00,
2013-02-23 15:32:00,33.1,24.1,30.19,SSE,158,9.0,11.0,69,0.01,,,0.01,meteohub,2013-02-23 21:32:00,
2013-02-23 15:37:00,33.1,24.6,30.19,SW,217,5.0,11.0,71,0.01,,,0.01,meteohub,2013-02-23 21:37:00,
2013-02-23 15:42:00,33.4,25.0,30.19,SSE,163,4.0,11.0,71,0.01,,,0.01,meteohub,2013-02-23 21:42:00,
2013-02-23 15:47:00,34.0,24.8,30.19,SSW,203,5.0,11.0,69,0.01,,,0.01,meteohub,2013-02-23 21:47:00,
2013-02-23 15:52:00,33.8,24.8,30.19,SSW,193,6.0,11.0,69,0.01,,,0.01,meteohub,2013-02-23 21:52:00,
2013-02-23 15:57:00,33.8,24.8,30.19,SSE,160,5.0,11.0,69,0.01,,,0.01,meteohub,2013-02-23 21:57:00,
2013-02-23 16:02:00,33.6,24.3,30.18,SSW,198,5.0,11.0,68,0.00,,,0.01,meteohub,2013-02-23 22:02:00,
2013-02-23 16:07:00,33.3,23.9,30.19,SSW,195,6.0,14.0,68,0.00,,,0.01,meteohub,2013-02-23 22:07:00,
2013-02-23 16:12:00,33.3,23.9,30.19,SW,219,7.0,14.0,68,0.00,,,0.01,meteohub,2013-02-23 22:12:00,
2013-02-23 16:17:00,33.3,23.9,30.18,SSW,201,6.0,14.0,68,0.00,,,0.01,meteohub,2013-02-23 22:17:00,
2013-02-23 16:22:00,33.4,24.1,30.19,SW,226,13.0,13.0,68,0.00,,,0.01,meteohub,2013-02-23 22:22:00,
2013-02-23 16:27:00,33.3,24.3,30.19,SW,221,10.0,14.0,69,0.00,,,0.01,meteohub,2013-02-23 22:27:00,
2013-02-23 16:32:00,33.3,24.3,30.19,SW,214,5.0,14.0,69,0.00,,,0.01,meteohub,2013-02-23 22:32:00,
2013-02-23 16:37:00,33.4,24.4,30.19,SSW,212,6.0,14.0,69,0.00,,,0.01,meteohub,2013-02-23 22:37:00,
2013-02-23 16:42:00,33.4,24.1,30.19,SSW,199,3.0,12.0,68,0.00,,,0.01,meteohub,2013-02-23 22:42:00,
2013-02-23 16:47:00,33.6,23.9,30.18,South,172,5.0,11.0,67,0.00,,,0.01,meteohub,2013-02-23 22:47:00,
2013-02-23 16:52:00,33.6,24.3,30.18,SSW,193,5.0,12.0,68,0.00,,,0.01,meteohub,2013-02-23 22:52:00,
2013-02-23 16:57:00,33.4,24.4,30.17,SSE,150,4.0,12.0,69,0.00,,,0.01,meteohub,2013-02-23 22:57:00,
2013-02-23 17:02:00,33.3,24.3,30.17,ESE,121,7.0,12.0,69,0.00,,,0.01,meteohub,2013-02-23 23:02:00,
2013-02-23 17:06:00,32.9,24.3,30.17,South,177,8.0,12.0,70,0.00,,,0.01,meteohub,2013-02-23 23:06:00,
2013-02-23 17:11:00,32.9,24.3,30.17,SE,143,6.0,11.0,70,0.00,,,0.01,meteohub,2013-02-23 23:11:00,
2013-02-23 17:16:00,32.9,24.3,30.17,SSE,167,6.0,12.0,70,0.00,,,0.01,meteohub,2013-02-23 23:16:00,
2013-02-23 17:21:00,33.1,24.4,30.18,SSE,149,4.0,12.0,70,0.00,,,0.01,meteohub,2013-02-23 23:21:00,
2013-02-23 17:27:00,33.3,24.6,30.17,SE,146,7.0,10.0,70,0.00,,,0.01,meteohub,2013-02-23 23:27:00,
2013-02-23 17:32:00,32.9,24.3,30.17,SSE,149,9.0,11.0,70,0.00,,,0.01,meteohub,2013-02-23 23:32:00,
2013-02-23 17:37:00,32.7,24.4,30.17,SE,138,6.0,11.0,71,0.00,,,0.01,meteohub,2013-02-23 23:37:00,
2013-02-23 17:42:00,32.7,24.1,30.17,SE,143,5.0,11.0,70,0.00,,,0.01,meteohub,2013-02-23 23:42:00,
2013-02-23 17:47:00,32.5,24.3,30.17,SSE,154,9.0,10.0,71,0.00,,,0.01,meteohub,2013-02-23 23:47:00,
2013-02-23 17:52:00,32.4,24.1,30.17,SE,143,6.0,10.0,71,0.00,,,0.01,meteohub,2013-02-23 23:52:00,
2013-02-23 17:57:00,32.4,24.1,30.17,ESE,103,5.0,9.0,71,0.00,,,0.01,meteohub,2013-02-23 23:57:00,
2013-02-23 18:02:00,32.2,24.3,30.16,SE,129,8.0,10.0,72,0.00,,,0.01,meteohub,2013-02-24 00:02:00,
2013-02-23 18:07:00,31.8,23.9,30.17,SE,145,4.0,10.0,72,0.00,,,0.01,meteohub,2013-02-24 00:07:00,
2013-02-23 18:12:00,31.8,24.1,30.17,ESE,121,2.0,10.0,73,0.00,,,0.01,meteohub,2013-02-24 00:12:00,
2013-02-23 18:17:00,31.6,24.3,30.17,East,94,6.0,8.0,74,0.00,,,0.01,meteohub,2013-02-24 00:17:00,
2013-02-23 18:22:00,31.5,24.1,30.17,SE,135,4.0,9.0,74,0.00,,,0.01,meteohub,2013-02-24 00:22:00,
2013-02-23 18:27:00,31.3,24.3,30.17,SE,128,6.0,9.0,75,0.00,,,0.01,meteohub,2013-02-24 00:27:00,
2013-02-23 18:32:00,30.9,23.9,30.17,ESE,119,4.0,10.0,75,0.00,,,0.01,meteohub,2013-02-24 00:32:00,
2013-02-23 18:37:00,30.9,23.9,30.18,SE,132,5.0,10.0,75,0.00,,,0.01,meteohub,2013-02-24 00:37:00,
2013-02-23 18:42:00,30.9,24.3,30.17,SSE,150,3.0,10.0,76,0.00,,,0.01,meteohub,2013-02-24 00:42:00,
2013-02-23 18:47:00,30.7,24.1,30.17,ESE,115,5.0,8.0,76,0.00,,,0.01,meteohub,2013-02-24 00:47:00,
2013-02-23 18:52:00,30.7,24.1,30.17,ESE,117,5.0,8.0,76,0.00,,,0.01,meteohub,2013-02-24 00:52:00,
2013-02-23 18:57:00,30.6,23.9,30.17,ESE,121,4.0,8.0,76,0.00,,,0.01,meteohub,2013-02-24 00:57:00,
2013-02-23 19:02:00,30.4,24.1,30.17,ESE,109,3.0,6.0,77,0.00,,,0.01,meteohub,2013-02-24 01:02:00,
2013-02-23 19:07:00,30.4,24.1,30.17,ESE,118,4.0,6.0,77,0.00,,,0.01,meteohub,2013-02-24 01:07:00,
2013-02-23 19:12:00,30.2,23.9,30.18,SE,143,3.0,5.0,77,0.00,,,0.01,meteohub,2013-02-24 01:12:00,
2013-02-23 19:17:00,30.0,24.1,30.18,ESE,121,1.0,5.0,78,0.00,,,0.01,meteohub,2013-02-24 01:17:00,
2013-02-23 19:22:00,30.0,24.1,30.18,SE,134,3.0,4.0,78,0.00,,,0.01,meteohub,2013-02-24 01:22:00,
2013-02-23 19:27:00,29.8,23.9,30.18,ESE,111,3.0,4.0,78,0.00,,,0.01,meteohub,2013-02-24 01:27:00,
2013-02-23 19:32:00,29.7,23.9,30.17,ESE,102,3.0,4.0,79,0.00,,,0.01,meteohub,2013-02-24 01:32:00,
2013-02-23 19:37:00,29.5,23.7,30.18,ESE,121,2.0,4.0,79,0.00,,,0.01,meteohub,2013-02-24 01:37:00,
2013-02-23 19:42:00,29.3,23.9,30.18,ESE,103,2.0,4.0,80,0.00,,,0.01,meteohub,2013-02-24 01:42:00,
2013-02-23 19:47:00,29.1,23.7,30.18,ESE,105,2.0,3.0,80,0.00,,,0.01,meteohub,2013-02-24 01:47:00,
2013-02-23 19:52:00,29.1,23.7,30.17,East,98,3.0,3.0,80,0.00,,,0.01,meteohub,2013-02-24 01:52:00,
2013-02-23 19:57:00,29.1,23.7,30.17,ESE,108,3.0,5.0,80,0.00,,,0.01,meteohub,2013-02-24 01:57:00,
2013-02-23 20:02:00,28.9,23.5,30.17,East,100,3.0,5.0,80,0.00,,,0.01,meteohub,2013-02-24 02:02:00,
2013-02-23 20:07:00,28.8,23.4,30.17,ESE,108,2.0,5.0,80,0.00,,,0.01,meteohub,2013-02-24 02:07:00,
2013-02-23 20:12:00,28.6,23.5,30.17,ESE,114,3.0,4.0,81,0.00,,,0.01,meteohub,2013-02-24 02:12:00,
2013-02-23 20:17:00,28.6,23.5,30.17,ESE,112,4.0,4.0,81,0.00,,,0.01,meteohub,2013-02-24 02:17:00,
2013-02-23 20:22:00,28.6,23.5,30.17,East,95,5.0,5.0,81,0.00,,,0.01,meteohub,2013-02-24 02:22:00,
2013-02-23 20:27:00,28.4,23.4,30.17,East,94,3.0,5.0,81,0.00,,,0.01,meteohub,2013-02-24 02:27:00,
2013-02-23 20:32:00,28.2,23.2,30.18,ESE,111,3.0,5.0,81,0.00,,,0.01,meteohub,2013-02-24 02:32:00,
2013-02-23 20:37:00,28.2,23.2,30.18,ESE,108,4.0,5.0,81,0.00,,,0.01,meteohub,2013-02-24 02:37:00,
2013-02-23 20:42:00,28.4,23.0,30.18,ESE,115,3.0,5.0,80,0.00,,,0.01,meteohub,2013-02-24 02:42:00,
2013-02-23 20:47:00,28.4,23.0,30.18,ESE,109,5.0,6.0,80,0.00,,,0.01,meteohub,2013-02-24 02:47:00,
2013-02-23 20:52:00,28.2,22.6,30.18,East,101,5.0,6.0,79,0.00,,,0.01,meteohub,2013-02-24 02:52:00,
2013-02-23 20:57:00,28.4,22.6,30.18,East,99,4.0,6.0,79,0.00,,,0.01,meteohub,2013-02-24 02:57:00,
2013-02-23 21:02:00,28.4,22.6,30.18,East,95,3.0,6.0,79,0.00,,,0.01,meteohub,2013-02-24 03:02:00,
2013-02-23 21:07:00,28.2,22.6,30.19,ESE,113,5.0,6.0,79,0.00,,,0.01,meteohub,2013-02-24 03:07:00,
2013-02-23 21:12:00,28.2,22.6,30.18,East,93,4.0,6.0,79,0.00,,,0.01,meteohub,2013-02-24 03:12:00,
2013-02-23 21:16:00,28.2,22.6,30.18,ESE,106,5.0,6.0,79,0.00,,,0.01,meteohub,2013-02-24 03:16:00,
2013-02-23 21:21:00,28.0,22.5,30.18,SE,127,5.0,6.0,79,0.00,,,0.01,meteohub,2013-02-24 03:21:00,
2013-02-23 21:26:00,28.0,22.5,30.18,ESE,106,4.0,6.0,79,0.00,,,0.01,meteohub,2013-02-24 03:26:00,
2013-02-23 21:31:00,28.0,22.5,30.18,East,99,4.0,6.0,79,0.00,,,0.01,meteohub,2013-02-24 03:31:00,
2013-02-23 21:36:00,28.0,22.5,30.18,East,100,4.0,6.0,79,0.00,,,0.01,meteohub,2013-02-24 03:36:00,
2013-02-23 21:42:00,28.0,22.5,30.18,ESE,115,4.0,6.0,79,0.00,,,0.01,meteohub,2013-02-24 03:42:00,
2013-02-23 21:47:00,28.0,22.5,30.18,East,81,3.0,6.0,79,0.00,,,0.01,meteohub,2013-02-24 03:47:00,
2013-02-23 21:52:00,28.0,22.5,30.18,East,98,4.0,6.0,79,0.00,,,0.01,meteohub,2013-02-24 03:52:00,
2013-02-23 21:57:00,28.0,22.5,30.18,East,101,3.0,6.0,79,0.00,,,0.01,meteohub,2013-02-24 03:57:00,
2013-02-23 22:02:00,28.0,22.5,30.18,East,91,5.0,6.0,79,0.00,,,0.01,meteohub,2013-02-24 04:02:00,
2013-02-23 22:07:00,27.9,22.3,30.18,ESE,103,4.0,6.0,79,0.00,,,0.01,meteohub,2013-02-24 04:07:00,
2013-02-23 22:12:00,27.9,22.3,30.18,ESE,117,5.0,7.0,79,0.00,,,0.01,meteohub,2013-02-24 04:12:00,
2013-02-23 22:17:00,27.9,22.5,30.18,ESE,120,3.0,7.0,80,0.00,,,0.01,meteohub,2013-02-24 04:17:00,
2013-02-23 22:22:00,28.0,22.6,30.18,ESE,111,4.0,7.0,80,0.00,,,0.01,meteohub,2013-02-24 04:22:00,
2013-02-23 22:27:00,27.9,22.5,30.17,ESE,108,4.0,6.0,80,0.00,,,0.01,meteohub,2013-02-24 04:27:00,
2013-02-23 22:32:00,28.0,22.6,30.17,East,94,6.0,8.0,80,0.00,,,0.01,meteohub,2013-02-24 04:32:00,
2013-02-23 22:37:00,28.0,22.6,30.18,ESE,108,4.0,8.0,80,0.00,,,0.01,meteohub,2013-02-24 04:37:00,
2013-02-23 22:42:00,28.0,23.0,30.18,SE,127,4.0,8.0,81,0.00,,,0.01,meteohub,2013-02-24 04:42:00,
2013-02-23 22:47:00,28.0,23.0,30.18,ESE,114,3.0,7.0,81,0.00,,,0.01,meteohub,2013-02-24 04:47:00,
2013-02-23 22:52:00,28.2,22.8,30.18,SE,124,5.0,8.0,80,0.00,,,0.01,meteohub,2013-02-24 04:52:00,
2013-02-23 22:57:00,28.6,23.2,30.18,ESE,108,6.0,9.0,80,0.00,,,0.01,meteohub,2013-02-24 04:57:00,
2013-02-23 23:00:00,28.6,23.2,30.18,SE,125,5.0,9.0,80,0.00,,,0.01,meteohub,2013-02-24 05:00:00,
2013-02-23 23:05:00,28.9,23.5,30.18,SE,124,7.0,10.0,80,0.00,,,0.01,meteohub,2013-02-24 05:05:00,
2013-02-23 23:10:00,29.1,23.4,30.18,ESE,117,6.0,10.0,79,0.00,,,0.01,meteohub,2013-02-24 05:10:00,
2013-02-23 23:15:00,29.1,23.4,30.18,ESE,108,7.0,10.0,79,0.00,,,0.01,meteohub,2013-02-24 05:15:00,
2013-02-23 23:20:00,29.1,23.4,30.18,ESE,114,5.0,13.0,79,0.00,,,0.01,meteohub,2013-02-24 05:20:00,
2013-02-23 23:25:00,29.3,23.5,30.17,ESE,119,7.0,13.0,79,0.00,,,0.01,meteohub,2013-02-24 05:25:00,
2013-02-23 23:30:00,29.3,23.5,30.17,East,86,6.0,13.0,79,0.00,,,0.01,meteohub,2013-02-24 05:30:00,
2013-02-23 23:35:00,29.3,23.5,30.17,East,96,8.0,8.0,79,0.00,,,0.01,meteohub,2013-02-24 05:35:00,
2013-02-23 23:40:00,29.5,23.7,30.17,ESE,111,8.0,10.0,79,0.00,,,0.01,meteohub,2013-02-24 05:40:00,
2013-02-23 23:45:00,29.5,23.5,30.17,ESE,103,5.0,10.0,78,0.00,,,0.01,meteohub,2013-02-24 05:45:00,
2013-02-23 23:50:00,29.5,23.7,30.17,ESE,115,6.0,10.0,79,0.00,,,0.01,meteohub,2013-02-24 05:50:00,
2013-02-23 23:55:00,29.1,23.4,30.17,ESE,106,7.0,10.0,79,0.00,,,0.01,meteohub,2013-02-24 05:55:00,